sensor_id;sensor_type;location;lat;lon;timestamp;temperature;humidity
6486;DHT22;3276;48.490;9.222;2023-07-31T00:00:24;13.70;18.70
6486;DHT22;3276;48.490;9.222;2023-07-31T00:02:51;13.70;18.70
6486;DHT22;3276;48.490;9.222;2023-07-31T00:05:17;13.70;18.50
6486;DHT22;3276;48.490;9.222;2023-07-31T00:07:43;13.70;19.00
6486;DHT22;3276;48.490;9.222;2023-07-31T00:10:08;13.70;19.30
6486;DHT22;3276;48.490;9.222;2023-07-31T00:12:34;13.60;19.60
6486;DHT22;3276;48.490;9.222;2023-07-31T00:15:00;13.60;19.90
6486;DHT22;3276;48.490;9.222;2023-07-31T00:17:25;13.60;20.80
6486;DHT22;3276;48.490;9.222;2023-07-31T00:19:51;13.50;20.50
6486;DHT22;3276;48.490;9.222;2023-07-31T00:22:16;13.50;20.70
6486;DHT22;3276;48.490;9.222;2023-07-31T00:24:42;13.50;20.30
6486;DHT22;3276;48.490;9.222;2023-07-31T00:27:08;13.50;20.20
6486;DHT22;3276;48.490;9.222;2023-07-31T00:29:33;13.50;20.50
6486;DHT22;3276;48.490;9.222;2023-07-31T00:31:59;13.50;20.70
6486;DHT22;3276;48.490;9.222;2023-07-31T00:34:24;13.50;20.70
6486;DHT22;3276;48.490;9.222;2023-07-31T00:36:50;13.50;20.70
6486;DHT22;3276;48.490;9.222;2023-07-31T00:39:16;13.50;20.50
6486;DHT22;3276;48.490;9.222;2023-07-31T00:41:42;13.50;20.00
6486;DHT22;3276;48.490;9.222;2023-07-31T00:44:07;13.50;19.70
6486;DHT22;3276;48.490;9.222;2023-07-31T00:46:33;13.50;19.80
6486;DHT22;3276;48.490;9.222;2023-07-31T00:48:59;13.50;19.80
6486;DHT22;3276;48.490;9.222;2023-07-31T00:51:25;13.60;19.50
6486;DHT22;3276;48.490;9.222;2023-07-31T00:53:50;13.50;19.40
6486;DHT22;3276;48.490;9.222;2023-07-31T00:56:19;13.50;19.70
6486;DHT22;3276;48.490;9.222;2023-07-31T00:58:45;13.50;20.10
6486;DHT22;3276;48.490;9.222;2023-07-31T01:01:10;13.50;19.80
6486;DHT22;3276;48.490;9.222;2023-07-31T01:03:36;13.50;19.90
6486;DHT22;3276;48.490;9.222;2023-07-31T01:08:57;13.50;19.80
6486;DHT22;3276;48.490;9.222;2023-07-31T01:11:29;13.50;19.80
6486;DHT22;3276;48.490;9.222;2023-07-31T01:13:55;13.60;19.60
6486;DHT22;3276;48.490;9.222;2023-07-31T01:16:21;13.60;19.60
6486;DHT22;3276;48.490;9.222;2023-07-31T01:18:46;13.60;19.40
6486;DHT22;3276;48.490;9.222;2023-07-31T01:26:34;13.50;20.10
6486;DHT22;3276;48.490;9.222;2023-07-31T01:31:53;13.40;20.70
6486;DHT22;3276;48.490;9.222;2023-07-31T01:34:21;13.40;20.20
6486;DHT22;3276;48.490;9.222;2023-07-31T01:36:50;13.40;20.70
6486;DHT22;3276;48.490;9.222;2023-07-31T01:39:15;13.40;20.70
6486;DHT22;3276;48.490;9.222;2023-07-31T01:41:41;13.40;20.60
6486;DHT22;3276;48.490;9.222;2023-07-31T01:44:07;13.40;20.70
6486;DHT22;3276;48.490;9.222;2023-07-31T01:46:32;13.40;21.30
6486;DHT22;3276;48.490;9.222;2023-07-31T01:48:58;13.40;20.70
6486;DHT22;3276;48.490;9.222;2023-07-31T01:51:23;13.30;20.70
6486;DHT22;3276;48.490;9.222;2023-07-31T01:53:49;13.30;20.60
6486;DHT22;3276;48.490;9.222;2023-07-31T01:56:15;13.30;20.60
6486;DHT22;3276;48.490;9.222;2023-07-31T01:58:40;13.30;21.00
6486;DHT22;3276;48.490;9.222;2023-07-31T02:01:06;13.30;21.20
6486;DHT22;3276;48.490;9.222;2023-07-31T02:03:31;13.20;21.20
6486;DHT22;3276;48.490;9.222;2023-07-31T02:05:57;13.20;21.40
6486;DHT22;3276;48.490;9.222;2023-07-31T02:08:22;13.20;21.00
6486;DHT22;3276;48.490;9.222;2023-07-31T02:10:48;13.20;21.60
6486;DHT22;3276;48.490;9.222;2023-07-31T02:13:14;13.20;21.80
6486;DHT22;3276;48.490;9.222;2023-07-31T02:15:39;13.20;22.10
6486;DHT22;3276;48.490;9.222;2023-07-31T02:18:05;13.10;22.40
6486;DHT22;3276;48.490;9.222;2023-07-31T02:20:34;13.10;22.80
6486;DHT22;3276;48.490;9.222;2023-07-31T02:22:59;13.00;22.70
6486;DHT22;3276;48.490;9.222;2023-07-31T02:25:25;13.00;22.90
6486;DHT22;3276;48.490;9.222;2023-07-31T02:27:50;13.00;22.90
6486;DHT22;3276;48.490;9.222;2023-07-31T02:30:16;13.00;22.90
6486;DHT22;3276;48.490;9.222;2023-07-31T02:32:41;13.00;23.00
6486;DHT22;3276;48.490;9.222;2023-07-31T02:35:07;13.00;23.40
6486;DHT22;3276;48.490;9.222;2023-07-31T02:37:34;13.00;23.20
6486;DHT22;3276;48.490;9.222;2023-07-31T02:39:59;13.00;23.30
6486;DHT22;3276;48.490;9.222;2023-07-31T02:42:25;13.00;23.10
6486;DHT22;3276;48.490;9.222;2023-07-31T02:44:50;13.00;22.50
6486;DHT22;3276;48.490;9.222;2023-07-31T02:47:21;13.00;22.20
6486;DHT22;3276;48.490;9.222;2023-07-31T02:49:47;13.00;22.00
6486;DHT22;3276;48.490;9.222;2023-07-31T02:52:12;13.10;21.70
6486;DHT22;3276;48.490;9.222;2023-07-31T02:54:38;13.00;21.80
6486;DHT22;3276;48.490;9.222;2023-07-31T02:57:04;13.10;22.00
6486;DHT22;3276;48.490;9.222;2023-07-31T02:59:29;13.10;22.10
6486;DHT22;3276;48.490;9.222;2023-07-31T03:01:55;13.00;22.00
6486;DHT22;3276;48.490;9.222;2023-07-31T03:04:21;13.00;22.40
6486;DHT22;3276;48.490;9.222;2023-07-31T03:06:46;13.00;22.40
6486;DHT22;3276;48.490;9.222;2023-07-31T03:09:12;13.00;22.20
6486;DHT22;3276;48.490;9.222;2023-07-31T03:11:37;13.00;22.10
6486;DHT22;3276;48.490;9.222;2023-07-31T03:14:03;13.00;22.60
6486;DHT22;3276;48.490;9.222;2023-07-31T03:16:28;13.00;23.00
6486;DHT22;3276;48.490;9.222;2023-07-31T03:18:54;12.90;24.60
6486;DHT22;3276;48.490;9.222;2023-07-31T03:21:20;12.90;24.60
6486;DHT22;3276;48.490;9.222;2023-07-31T03:23:45;12.90;24.10
6486;DHT22;3276;48.490;9.222;2023-07-31T03:26:11;12.90;23.70
6486;DHT22;3276;48.490;9.222;2023-07-31T03:28:36;12.90;23.50
6486;DHT22;3276;48.490;9.222;2023-07-31T03:31:02;12.90;23.00
6486;DHT22;3276;48.490;9.222;2023-07-31T03:33:28;12.90;22.50
6486;DHT22;3276;48.490;9.222;2023-07-31T03:35:53;12.80;23.10
6486;DHT22;3276;48.490;9.222;2023-07-31T03:38:19;12.80;23.90
6486;DHT22;3276;48.490;9.222;2023-07-31T03:40:44;12.80;23.50
6486;DHT22;3276;48.490;9.222;2023-07-31T03:43:11;12.70;24.40
6486;DHT22;3276;48.490;9.222;2023-07-31T03:45:36;12.80;24.80
6486;DHT22;3276;48.490;9.222;2023-07-31T03:48:03;12.80;24.50
6486;DHT22;3276;48.490;9.222;2023-07-31T03:50:28;12.80;25.30
6486;DHT22;3276;48.490;9.222;2023-07-31T03:52:54;12.90;24.60
6486;DHT22;3276;48.490;9.222;2023-07-31T03:55:20;12.90;24.50
6486;DHT22;3276;48.490;9.222;2023-07-31T03:57:47;13.00;24.60
6486;DHT22;3276;48.490;9.222;2023-07-31T04:00:13;13.00;25.20
6486;DHT22;3276;48.490;9.222;2023-07-31T04:02:38;13.00;25.20
6486;DHT22;3276;48.490;9.222;2023-07-31T04:05:04;13.00;24.60
6486;DHT22;3276;48.490;9.222;2023-07-31T04:07:29;13.00;24.70
6486;DHT22;3276;48.490;9.222;2023-07-31T04:09:56;13.00;24.80
6486;DHT22;3276;48.490;9.222;2023-07-31T04:12:22;13.00;26.00
6486;DHT22;3276;48.490;9.222;2023-07-31T04:14:48;13.00;26.70
6486;DHT22;3276;48.490;9.222;2023-07-31T04:17:13;13.10;26.90
6486;DHT22;3276;48.490;9.222;2023-07-31T04:19:39;13.10;26.20
6486;DHT22;3276;48.490;9.222;2023-07-31T04:22:05;13.20;24.80
6486;DHT22;3276;48.490;9.222;2023-07-31T04:24:30;13.30;24.90
6486;DHT22;3276;48.490;9.222;2023-07-31T04:26:56;13.40;23.70
6486;DHT22;3276;48.490;9.222;2023-07-31T04:29:21;13.50;22.50
6486;DHT22;3276;48.490;9.222;2023-07-31T04:31:48;13.60;22.20
6486;DHT22;3276;48.490;9.222;2023-07-31T04:34:13;13.60;22.80
6486;DHT22;3276;48.490;9.222;2023-07-31T04:36:39;13.60;22.60
6486;DHT22;3276;48.490;9.222;2023-07-31T04:39:04;13.60;21.80
6486;DHT22;3276;48.490;9.222;2023-07-31T04:41:30;13.70;22.10
6486;DHT22;3276;48.490;9.222;2023-07-31T04:43:56;13.70;21.40
6486;DHT22;3276;48.490;9.222;2023-07-31T04:46:21;13.80;22.00
6486;DHT22;3276;48.490;9.222;2023-07-31T04:48:47;13.80;21.00
6486;DHT22;3276;48.490;9.222;2023-07-31T04:51:12;14.00;21.10
6486;DHT22;3276;48.490;9.222;2023-07-31T04:53:38;14.00;21.10
6486;DHT22;3276;48.490;9.222;2023-07-31T04:56:04;14.10;19.90
6486;DHT22;3276;48.490;9.222;2023-07-31T04:58:29;14.30;19.20
6486;DHT22;3276;48.490;9.222;2023-07-31T05:00:55;14.40;19.20
6486;DHT22;3276;48.490;9.222;2023-07-31T05:03:20;14.40;19.40
6486;DHT22;3276;48.490;9.222;2023-07-31T05:05:46;14.50;18.60
6486;DHT22;3276;48.490;9.222;2023-07-31T05:08:12;14.60;18.70
6486;DHT22;3276;48.490;9.222;2023-07-31T05:10:37;14.70;17.80
6486;DHT22;3276;48.490;9.222;2023-07-31T05:13:03;14.80;17.40
6486;DHT22;3276;48.490;9.222;2023-07-31T05:15:29;15.00;17.50
6486;DHT22;3276;48.490;9.222;2023-07-31T05:17:55;15.10;15.80
6486;DHT22;3276;48.490;9.222;2023-07-31T05:20:21;15.30;16.10
6486;DHT22;3276;48.490;9.222;2023-07-31T05:22:46;15.50;16.70
6486;DHT22;3276;48.490;9.222;2023-07-31T05:25:12;15.70;16.00
6486;DHT22;3276;48.490;9.222;2023-07-31T05:27:38;15.80;14.30
6486;DHT22;3276;48.490;9.222;2023-07-31T05:30:04;15.90;17.40
6486;DHT22;3276;48.490;9.222;2023-07-31T05:32:30;16.00;18.20
6486;DHT22;3276;48.490;9.222;2023-07-31T05:34:55;16.10;19.20
6486;DHT22;3276;48.490;9.222;2023-07-31T05:37:22;16.30;20.30
6486;DHT22;3276;48.490;9.222;2023-07-31T05:39:47;16.60;21.10
6486;DHT22;3276;48.490;9.222;2023-07-31T05:42:13;17.10;18.20
6486;DHT22;3276;48.490;9.222;2023-07-31T05:44:38;17.60;17.20
6486;DHT22;3276;48.490;9.222;2023-07-31T05:47:04;18.00;15.20
6486;DHT22;3276;48.490;9.222;2023-07-31T05:49:30;18.30;13.40
6486;DHT22;3276;48.490;9.222;2023-07-31T05:51:56;18.30;12.70
6486;DHT22;3276;48.490;9.222;2023-07-31T05:54:21;18.30;12.30
6486;DHT22;3276;48.490;9.222;2023-07-31T05:56:47;18.30;12.90
6486;DHT22;3276;48.490;9.222;2023-07-31T05:59:13;18.20;13.70
6486;DHT22;3276;48.490;9.222;2023-07-31T06:01:39;18.40;13.20
6486;DHT22;3276;48.490;9.222;2023-07-31T06:04:04;18.60;13.20
6486;DHT22;3276;48.490;9.222;2023-07-31T06:06:30;18.70;16.00
6486;DHT22;3276;48.490;9.222;2023-07-31T06:08:56;19.40;11.10
6486;DHT22;3276;48.490;9.222;2023-07-31T06:11:21;19.90;11.10
6486;DHT22;3276;48.490;9.222;2023-07-31T06:13:47;19.80;9.20
6486;DHT22;3276;48.490;9.222;2023-07-31T06:16:14;19.50;9.80
6486;DHT22;3276;48.490;9.222;2023-07-31T06:18:40;19.50;10.50
6486;DHT22;3276;48.490;9.222;2023-07-31T06:21:06;19.40;10.20
6486;DHT22;3276;48.490;9.222;2023-07-31T06:23:32;19.30;9.50
6486;DHT22;3276;48.490;9.222;2023-07-31T06:25:58;19.00;10.00
6486;DHT22;3276;48.490;9.222;2023-07-31T06:28:30;19.00;11.40
6486;DHT22;3276;48.490;9.222;2023-07-31T06:30:57;19.00;11.40
6486;DHT22;3276;48.490;9.222;2023-07-31T06:33:23;19.20;10.60
6486;DHT22;3276;48.490;9.222;2023-07-31T06:35:49;19.40;11.70
6486;DHT22;3276;48.490;9.222;2023-07-31T06:38:14;19.50;10.80
6486;DHT22;3276;48.490;9.222;2023-07-31T06:40:40;19.60;11.80
6486;DHT22;3276;48.490;9.222;2023-07-31T06:43:05;20.20;10.90
6486;DHT22;3276;48.490;9.222;2023-07-31T06:45:35;21.50;8.10
6486;DHT22;3276;48.490;9.222;2023-07-31T06:48:01;22.50;5.20
6486;DHT22;3276;48.490;9.222;2023-07-31T06:50:28;24.70;2.60
6486;DHT22;3276;48.490;9.222;2023-07-31T06:52:54;27.30;1.00
6486;DHT22;3276;48.490;9.222;2023-07-31T06:55:20;28.80;1.00
6486;DHT22;3276;48.490;9.222;2023-07-31T06:57:48;29.00;1.00
6486;DHT22;3276;48.490;9.222;2023-07-31T07:00:14;28.70;1.00
6486;DHT22;3276;48.490;9.222;2023-07-31T07:02:39;29.60;1.00
6486;DHT22;3276;48.490;9.222;2023-07-31T07:05:06;29.90;1.00
6486;DHT22;3276;48.490;9.222;2023-07-31T07:07:32;29.60;1.00
6486;DHT22;3276;48.490;9.222;2023-07-31T07:09:58;28.70;1.00
6486;DHT22;3276;48.490;9.222;2023-07-31T07:12:29;27.80;1.00
6486;DHT22;3276;48.490;9.222;2023-07-31T07:14:55;26.80;1.00
6486;DHT22;3276;48.490;9.222;2023-07-31T07:17:20;26.20;1.00
6486;DHT22;3276;48.490;9.222;2023-07-31T07:19:47;25.60;1.00
6486;DHT22;3276;48.490;9.222;2023-07-31T07:22:13;25.50;1.00
6486;DHT22;3276;48.490;9.222;2023-07-31T07:24:39;26.00;1.00
6486;DHT22;3276;48.490;9.222;2023-07-31T07:27:05;26.00;1.00
6486;DHT22;3276;48.490;9.222;2023-07-31T07:29:30;26.70;1.00
6486;DHT22;3276;48.490;9.222;2023-07-31T07:31:56;26.80;1.00
6486;DHT22;3276;48.490;9.222;2023-07-31T07:34:28;26.70;1.00
6486;DHT22;3276;48.490;9.222;2023-07-31T07:36:54;27.50;1.00
6486;DHT22;3276;48.490;9.222;2023-07-31T07:39:20;28.30;1.00
6486;DHT22;3276;48.490;9.222;2023-07-31T07:41:46;28.20;1.00
6486;DHT22;3276;48.490;9.222;2023-07-31T07:44:13;28.80;1.00
6486;DHT22;3276;48.490;9.222;2023-07-31T07:46:38;29.60;1.00
6486;DHT22;3276;48.490;9.222;2023-07-31T07:49:04;30.40;1.00
6486;DHT22;3276;48.490;9.222;2023-07-31T07:51:30;30.80;1.00
6486;DHT22;3276;48.490;9.222;2023-07-31T07:53:57;30.90;1.00
6486;DHT22;3276;48.490;9.222;2023-07-31T07:56:25;29.80;1.00
6486;DHT22;3276;48.490;9.222;2023-07-31T07:58:50;29.90;1.00
6486;DHT22;3276;48.490;9.222;2023-07-31T08:01:16;30.70;1.00
6486;DHT22;3276;48.490;9.222;2023-07-31T08:03:45;31.90;1.00
6486;DHT22;3276;48.490;9.222;2023-07-31T08:06:11;32.70;1.00
6486;DHT22;3276;48.490;9.222;2023-07-31T08:08:37;33.00;1.00
6486;DHT22;3276;48.490;9.222;2023-07-31T08:11:03;33.50;1.00
6486;DHT22;3276;48.490;9.222;2023-07-31T08:13:29;33.70;1.00
6486;DHT22;3276;48.490;9.222;2023-07-31T08:15:55;32.10;1.00
6486;DHT22;3276;48.490;9.222;2023-07-31T08:18:20;31.30;1.00
6486;DHT22;3276;48.490;9.222;2023-07-31T08:20:46;28.70;1.00
6486;DHT22;3276;48.490;9.222;2023-07-31T08:23:12;28.60;1.00
6486;DHT22;3276;48.490;9.222;2023-07-31T08:25:38;28.20;1.00
6486;DHT22;3276;48.490;9.222;2023-07-31T08:28:05;28.50;1.00
6486;DHT22;3276;48.490;9.222;2023-07-31T08:30:31;30.00;1.00
6486;DHT22;3276;48.490;9.222;2023-07-31T08:32:56;30.20;1.00
6486;DHT22;3276;48.490;9.222;2023-07-31T08:35:23;31.50;1.00
6486;DHT22;3276;48.490;9.222;2023-07-31T08:37:49;30.70;1.00
6486;DHT22;3276;48.490;9.222;2023-07-31T08:40:15;32.00;1.00
6486;DHT22;3276;48.490;9.222;2023-07-31T08:42:47;32.30;1.00
6486;DHT22;3276;48.490;9.222;2023-07-31T08:45:18;30.00;1.00
6486;DHT22;3276;48.490;9.222;2023-07-31T08:47:51;31.60;1.00
6486;DHT22;3276;48.490;9.222;2023-07-31T08:50:18;33.50;1.00
6486;DHT22;3276;48.490;9.222;2023-07-31T08:52:46;34.30;1.00
6486;DHT22;3276;48.490;9.222;2023-07-31T08:55:12;36.50;1.00
6486;DHT22;3276;48.490;9.222;2023-07-31T08:57:38;35.20;1.00
6486;DHT22;3276;48.490;9.222;2023-07-31T09:00:06;32.30;1.00
6486;DHT22;3276;48.490;9.222;2023-07-31T09:02:39;31.20;1.00
6486;DHT22;3276;48.490;9.222;2023-07-31T09:05:07;32.80;1.00
6486;DHT22;3276;48.490;9.222;2023-07-31T09:07:34;33.00;1.00
6486;DHT22;3276;48.490;9.222;2023-07-31T09:10:00;32.30;1.00
6486;DHT22;3276;48.490;9.222;2023-07-31T09:12:26;31.00;1.00
6486;DHT22;3276;48.490;9.222;2023-07-31T09:14:51;29.70;1.00
6486;DHT22;3276;48.490;9.222;2023-07-31T09:17:37;28.70;1.00
6486;DHT22;3276;48.490;9.222;2023-07-31T09:20:19;28.00;1.00
6486;DHT22;3276;48.490;9.222;2023-07-31T09:22:45;26.90;1.00
6486;DHT22;3276;48.490;9.222;2023-07-31T09:25:19;26.20;1.00
6486;DHT22;3276;48.490;9.222;2023-07-31T09:30:22;25.70;1.00
6486;DHT22;3276;48.490;9.222;2023-07-31T09:32:49;26.00;1.00
6486;DHT22;3276;48.490;9.222;2023-07-31T09:35:26;25.70;1.00
6486;DHT22;3276;48.490;9.222;2023-07-31T09:37:53;25.30;1.00
6486;DHT22;3276;48.490;9.222;2023-07-31T09:40:46;25.80;1.00
6486;DHT22;3276;48.490;9.222;2023-07-31T09:43:17;26.40;1.00
6486;DHT22;3276;48.490;9.222;2023-07-31T09:45:44;26.70;1.00
6486;DHT22;3276;48.490;9.222;2023-07-31T09:48:17;26.40;1.00
6486;DHT22;3276;48.490;9.222;2023-07-31T09:50:45;25.80;1.00
6486;DHT22;3276;48.490;9.222;2023-07-31T09:53:11;25.90;1.00
6486;DHT22;3276;48.490;9.222;2023-07-31T09:55:40;26.20;1.00
6486;DHT22;3276;48.490;9.222;2023-07-31T09:58:08;26.10;1.00
6486;DHT22;3276;48.490;9.222;2023-07-31T10:00:34;25.80;1.00
6486;DHT22;3276;48.490;9.222;2023-07-31T10:03:01;25.00;1.00
6486;DHT22;3276;48.490;9.222;2023-07-31T10:05:35;25.40;1.00
6486;DHT22;3276;48.490;9.222;2023-07-31T10:08:02;25.70;1.00
6486;DHT22;3276;48.490;9.222;2023-07-31T10:10:28;25.80;1.00
6486;DHT22;3276;48.490;9.222;2023-07-31T10:12:56;25.60;1.00
6486;DHT22;3276;48.490;9.222;2023-07-31T10:15:22;25.10;1.00
6486;DHT22;3276;48.490;9.222;2023-07-31T10:17:48;25.10;1.00
6486;DHT22;3276;48.490;9.222;2023-07-31T10:20:15;25.50;1.00
6486;DHT22;3276;48.490;9.222;2023-07-31T10:22:44;25.20;1.00
6486;DHT22;3276;48.490;9.222;2023-07-31T10:25:14;24.90;1.00
6486;DHT22;3276;48.490;9.222;2023-07-31T10:27:40;24.70;1.00
6486;DHT22;3276;48.490;9.222;2023-07-31T10:30:08;24.60;1.00
6486;DHT22;3276;48.490;9.222;2023-07-31T10:32:35;24.00;1.00
6486;DHT22;3276;48.490;9.222;2023-07-31T10:35:02;24.20;1.00
6486;DHT22;3276;48.490;9.222;2023-07-31T10:37:36;24.20;1.00
6486;DHT22;3276;48.490;9.222;2023-07-31T10:40:26;24.10;1.00
6486;DHT22;3276;48.490;9.222;2023-07-31T10:42:53;24.10;1.00
6486;DHT22;3276;48.490;9.222;2023-07-31T10:45:35;24.20;1.00
6486;DHT22;3276;48.490;9.222;2023-07-31T10:48:22;24.50;1.00
6486;DHT22;3276;48.490;9.222;2023-07-31T10:50:59;24.60;1.00
6486;DHT22;3276;48.490;9.222;2023-07-31T10:53:30;24.30;1.00
6486;DHT22;3276;48.490;9.222;2023-07-31T10:55:59;24.30;1.00
6486;DHT22;3276;48.490;9.222;2023-07-31T10:58:25;24.50;1.00
6486;DHT22;3276;48.490;9.222;2023-07-31T11:00:58;24.60;1.00
6486;DHT22;3276;48.490;9.222;2023-07-31T11:03:41;24.60;1.00
6486;DHT22;3276;48.490;9.222;2023-07-31T11:06:07;25.00;1.00
6486;DHT22;3276;48.490;9.222;2023-07-31T11:08:35;24.90;1.00
6486;DHT22;3276;48.490;9.222;2023-07-31T11:13:26;24.90;1.00
6486;DHT22;3276;48.490;9.222;2023-07-31T11:15:52;25.10;1.00
6486;DHT22;3276;48.490;9.222;2023-07-31T11:18:18;25.10;1.00
6486;DHT22;3276;48.490;9.222;2023-07-31T11:20:44;25.40;1.00
6486;DHT22;3276;48.490;9.222;2023-07-31T11:23:10;25.90;1.00
6486;DHT22;3276;48.490;9.222;2023-07-31T11:25:37;26.50;1.00
6486;DHT22;3276;48.490;9.222;2023-07-31T11:28:08;26.40;1.00
6486;DHT22;3276;48.490;9.222;2023-07-31T11:30:34;26.30;1.00
6486;DHT22;3276;48.490;9.222;2023-07-31T11:33:04;26.40;1.00
6486;DHT22;3276;48.490;9.222;2023-07-31T11:35:35;26.50;1.00
6486;DHT22;3276;48.490;9.222;2023-07-31T11:38:01;26.80;1.00
6486;DHT22;3276;48.490;9.222;2023-07-31T11:40:28;27.00;1.00
6486;DHT22;3276;48.490;9.222;2023-07-31T11:42:57;27.40;1.00
6486;DHT22;3276;48.490;9.222;2023-07-31T11:45:27;27.60;1.00
6486;DHT22;3276;48.490;9.222;2023-07-31T11:47:56;27.60;1.00
6486;DHT22;3276;48.490;9.222;2023-07-31T11:50:23;27.30;1.00
6486;DHT22;3276;48.490;9.222;2023-07-31T11:52:54;27.70;1.00
6486;DHT22;3276;48.490;9.222;2023-07-31T11:55:22;27.90;1.00
6486;DHT22;3276;48.490;9.222;2023-07-31T11:57:49;28.10;1.00
6486;DHT22;3276;48.490;9.222;2023-07-31T12:00:15;27.60;1.00
6486;DHT22;3276;48.490;9.222;2023-07-31T12:02:42;27.70;1.00
6486;DHT22;3276;48.490;9.222;2023-07-31T12:05:12;27.70;1.00
6486;DHT22;3276;48.490;9.222;2023-07-31T12:07:49;27.10;1.00
6486;DHT22;3276;48.490;9.222;2023-07-31T12:13:04;27.10;1.00
6486;DHT22;3276;48.490;9.222;2023-07-31T12:15:34;27.00;1.00
6486;DHT22;3276;48.490;9.222;2023-07-31T12:18:04;26.70;1.00
6486;DHT22;3276;48.490;9.222;2023-07-31T12:20:30;26.40;1.00
6486;DHT22;3276;48.490;9.222;2023-07-31T12:22:57;26.00;1.00
6486;DHT22;3276;48.490;9.222;2023-07-31T12:25:28;26.00;1.00
6486;DHT22;3276;48.490;9.222;2023-07-31T12:27:53;25.60;1.00
6486;DHT22;3276;48.490;9.222;2023-07-31T12:30:32;25.40;1.00
6486;DHT22;3276;48.490;9.222;2023-07-31T12:33:04;25.30;1.00
6486;DHT22;3276;48.490;9.222;2023-07-31T12:35:37;25.30;1.00
6486;DHT22;3276;48.490;9.222;2023-07-31T12:38:03;25.60;1.00
6486;DHT22;3276;48.490;9.222;2023-07-31T12:40:29;25.80;1.00
6486;DHT22;3276;48.490;9.222;2023-07-31T12:42:54;25.50;1.00
6486;DHT22;3276;48.490;9.222;2023-07-31T12:45:20;25.50;1.00
6486;DHT22;3276;48.490;9.222;2023-07-31T12:47:46;25.90;1.00
6486;DHT22;3276;48.490;9.222;2023-07-31T12:50:12;26.10;1.00
6486;DHT22;3276;48.490;9.222;2023-07-31T12:52:38;26.50;1.00
6486;DHT22;3276;48.490;9.222;2023-07-31T12:55:03;26.90;1.00
6486;DHT22;3276;48.490;9.222;2023-07-31T12:57:30;27.30;1.00
6486;DHT22;3276;48.490;9.222;2023-07-31T12:59:55;27.00;1.00
6486;DHT22;3276;48.490;9.222;2023-07-31T13:02:21;27.20;1.00
6486;DHT22;3276;48.490;9.222;2023-07-31T13:04:47;27.10;1.00
6486;DHT22;3276;48.490;9.222;2023-07-31T13:07:12;27.20;1.00
6486;DHT22;3276;48.490;9.222;2023-07-31T13:09:38;26.90;1.00
6486;DHT22;3276;48.490;9.222;2023-07-31T13:12:04;26.20;1.00
6486;DHT22;3276;48.490;9.222;2023-07-31T13:14:29;26.10;1.00
6486;DHT22;3276;48.490;9.222;2023-07-31T13:16:55;26.50;1.00
6486;DHT22;3276;48.490;9.222;2023-07-31T13:19:21;26.60;1.00
6486;DHT22;3276;48.490;9.222;2023-07-31T13:21:46;26.30;1.00
6486;DHT22;3276;48.490;9.222;2023-07-31T13:24:12;26.20;1.00
6486;DHT22;3276;48.490;9.222;2023-07-31T13:26:37;26.70;1.00
6486;DHT22;3276;48.490;9.222;2023-07-31T13:29:03;26.80;1.00
6486;DHT22;3276;48.490;9.222;2023-07-31T13:31:28;27.20;1.00
6486;DHT22;3276;48.490;9.222;2023-07-31T13:33:54;27.40;1.00
6486;DHT22;3276;48.490;9.222;2023-07-31T13:36:19;27.50;1.00
6486;DHT22;3276;48.490;9.222;2023-07-31T13:38:54;27.50;1.00
6486;DHT22;3276;48.490;9.222;2023-07-31T13:41:29;27.60;1.00
6486;DHT22;3276;48.490;9.222;2023-07-31T13:43:55;27.90;1.00
6486;DHT22;3276;48.490;9.222;2023-07-31T13:46:20;27.70;1.00
6486;DHT22;3276;48.490;9.222;2023-07-31T13:48:46;27.80;1.00
6486;DHT22;3276;48.490;9.222;2023-07-31T13:51:11;27.80;1.00
6486;DHT22;3276;48.490;9.222;2023-07-31T13:53:37;27.10;1.00
6486;DHT22;3276;48.490;9.222;2023-07-31T13:56:02;26.90;1.00
6486;DHT22;3276;48.490;9.222;2023-07-31T13:58:30;26.20;1.00
6486;DHT22;3276;48.490;9.222;2023-07-31T14:00:56;25.60;1.00
6486;DHT22;3276;48.490;9.222;2023-07-31T14:03:21;25.40;1.00
6486;DHT22;3276;48.490;9.222;2023-07-31T14:05:47;25.20;1.00
6486;DHT22;3276;48.490;9.222;2023-07-31T14:08:12;24.90;1.00
6486;DHT22;3276;48.490;9.222;2023-07-31T14:10:38;25.10;1.00
6486;DHT22;3276;48.490;9.222;2023-07-31T14:13:04;25.20;1.00
6486;DHT22;3276;48.490;9.222;2023-07-31T14:15:29;25.00;1.00
6486;DHT22;3276;48.490;9.222;2023-07-31T14:17:55;24.80;1.00
6486;DHT22;3276;48.490;9.222;2023-07-31T14:20:20;24.90;1.00
6486;DHT22;3276;48.490;9.222;2023-07-31T14:22:46;24.80;1.00
6486;DHT22;3276;48.490;9.222;2023-07-31T14:25:11;24.50;1.00
6486;DHT22;3276;48.490;9.222;2023-07-31T14:27:37;24.40;1.00
6486;DHT22;3276;48.490;9.222;2023-07-31T14:30:03;24.00;1.00
6486;DHT22;3276;48.490;9.222;2023-07-31T14:32:29;23.90;1.00
6486;DHT22;3276;48.490;9.222;2023-07-31T14:34:54;23.90;1.00
6486;DHT22;3276;48.490;9.222;2023-07-31T14:37:20;23.70;1.00
6486;DHT22;3276;48.490;9.222;2023-07-31T14:39:46;23.70;1.00
6486;DHT22;3276;48.490;9.222;2023-07-31T14:42:11;23.50;1.00
6486;DHT22;3276;48.490;9.222;2023-07-31T14:44:37;23.60;1.00
6486;DHT22;3276;48.490;9.222;2023-07-31T14:47:03;23.70;1.00
6486;DHT22;3276;48.490;9.222;2023-07-31T14:49:28;23.60;1.00
6486;DHT22;3276;48.490;9.222;2023-07-31T14:51:54;23.50;1.00
6486;DHT22;3276;48.490;9.222;2023-07-31T14:54:20;23.50;1.00
6486;DHT22;3276;48.490;9.222;2023-07-31T14:56:46;23.30;1.00
6486;DHT22;3276;48.490;9.222;2023-07-31T14:59:11;23.30;1.00
6486;DHT22;3276;48.490;9.222;2023-07-31T15:01:37;23.30;1.00
6486;DHT22;3276;48.490;9.222;2023-07-31T15:04:03;23.50;1.00
6486;DHT22;3276;48.490;9.222;2023-07-31T15:06:29;23.40;1.00
6486;DHT22;3276;48.490;9.222;2023-07-31T15:08:54;23.50;1.00
6486;DHT22;3276;48.490;9.222;2023-07-31T15:11:20;23.50;1.00
6486;DHT22;3276;48.490;9.222;2023-07-31T15:13:45;23.50;1.00
6486;DHT22;3276;48.490;9.222;2023-07-31T15:16:11;23.50;1.00
6486;DHT22;3276;48.490;9.222;2023-07-31T15:18:37;23.50;1.00
6486;DHT22;3276;48.490;9.222;2023-07-31T15:21:02;23.50;1.00
6486;DHT22;3276;48.490;9.222;2023-07-31T15:23:29;23.40;1.00
6486;DHT22;3276;48.490;9.222;2023-07-31T15:25:55;23.30;1.00
6486;DHT22;3276;48.490;9.222;2023-07-31T15:28:20;23.10;1.00
6486;DHT22;3276;48.490;9.222;2023-07-31T15:30:46;23.00;1.00
6486;DHT22;3276;48.490;9.222;2023-07-31T15:33:12;22.90;1.00
6486;DHT22;3276;48.490;9.222;2023-07-31T15:35:37;23.00;1.00
6486;DHT22;3276;48.490;9.222;2023-07-31T15:38:03;23.10;1.00
6486;DHT22;3276;48.490;9.222;2023-07-31T15:40:28;23.20;1.00
6486;DHT22;3276;48.490;9.222;2023-07-31T15:42:54;23.40;1.00
6486;DHT22;3276;48.490;9.222;2023-07-31T15:45:20;23.70;1.00
6486;DHT22;3276;48.490;9.222;2023-07-31T15:47:45;23.80;1.00
6486;DHT22;3276;48.490;9.222;2023-07-31T15:50:11;23.80;1.00
6486;DHT22;3276;48.490;9.222;2023-07-31T15:52:36;23.90;1.00
6486;DHT22;3276;48.490;9.222;2023-07-31T15:55:02;24.00;1.00
6486;DHT22;3276;48.490;9.222;2023-07-31T15:57:28;24.10;1.00
6486;DHT22;3276;48.490;9.222;2023-07-31T15:59:53;24.40;1.00
6486;DHT22;3276;48.490;9.222;2023-07-31T16:02:19;24.30;1.00
6486;DHT22;3276;48.490;9.222;2023-07-31T16:04:44;24.30;1.00
6486;DHT22;3276;48.490;9.222;2023-07-31T16:07:10;24.40;1.00
6486;DHT22;3276;48.490;9.222;2023-07-31T16:09:37;24.60;1.00
6486;DHT22;3276;48.490;9.222;2023-07-31T16:12:03;24.90;1.00
6486;DHT22;3276;48.490;9.222;2023-07-31T16:14:30;24.90;1.00
6486;DHT22;3276;48.490;9.222;2023-07-31T16:16:56;24.90;1.00
6486;DHT22;3276;48.490;9.222;2023-07-31T16:19:21;24.70;1.00
6486;DHT22;3276;48.490;9.222;2023-07-31T16:21:47;24.60;1.00
6486;DHT22;3276;48.490;9.222;2023-07-31T16:24:12;24.80;1.00
6486;DHT22;3276;48.490;9.222;2023-07-31T16:26:38;24.60;1.00